Minneapolis, Minnesota
Traffic Map
Current Weather Conditions
Minneapolis, Minnesota
Overcast Light Rain
Overcast
41°
Feels Like: 37°
Wind Chill: 37° Ceiling: 2900
Heat Index: 41° Visibility: 6mi
Dew Point: 36° Wind: 6mph
Humidity: 82% Direction: 30° (NNE)
Pressure: 30.07in Gusts: 0mph
Raw Report DataKMSP 282340Z 03005KT 6SM -RA FEW020 OVC029 05/02 A3007 RMK AO2 P0006 T00500022
Traffic Incident Summary
Active as of:
Severity:
Category:
InformationThere was an issue retrieving the traffic information for this location. Please try a different location or try again shortly.
Advertisements
Track Severe Weather on mobile